Time;durP1;ratioP1;P1;durP2;ratioP2;P2;SDS_P1;SDS_P2;PMS_P1;PMS_P2;Temp;Humidity;BMP_temperature;BMP_pressure;BME280_temperature;BME280_humidity;BME280_pressure;Samples;Min_cycle;Max_cycle;Signal;HPM_P1;HPM_P2
2022/11/01 00:01:56;;;;;;;37.88;19.23;;;;;;;8.84;100.00;93972.47;5088696;28;20051;-65
2022/11/01 00:04:23;;;;;;;36.65;19.85;;;;;;;8.73;100.00;93974.50;5089187;28;20058;-65
2022/11/01 00:06:50;;;;;;;32.28;17.35;;;;;;;8.89;100.00;93965.78;5088755;28;20048;-66
2022/11/01 00:09:17;;;;;;;35.40;17.40;;;;;;;8.92;100.00;93968.50;5088890;28;20112;-67
2022/11/01 00:11:44;;;;;;;32.57;16.70;;;;;;;8.97;100.00;93968.06;5089033;28;20040;-65
2022/11/01 00:14:13;;;;;;;32.22;16.00;;;;;;;8.96;100.00;93974.72;5088521;28;20040;-66
2022/11/01 00:16:40;;;;;;;29.00;15.93;;;;;;;8.90;100.00;93972.81;5088807;28;20113;-67
2022/11/01 00:19:07;;;;;;;34.83;16.42;;;;;;;8.80;100.00;93972.50;5088963;28;20105;-65
2022/11/01 00:21:34;;;;;;;33.40;17.45;;;;;;;8.72;100.00;93971.00;5088710;28;20032;-66
2022/11/01 00:24:01;;;;;;;32.97;16.30;;;;;;;8.74;100.00;93971.38;5088841;28;20044;-65
2022/11/01 00:26:27;;;;;;;32.33;17.35;;;;;;;8.79;100.00;93970.94;5088810;28;20054;-65
2022/11/01 00:28:54;;;;;;;82.85;40.08;;;;;;;8.83;100.00;93975.59;5088622;28;20078;-75
2022/11/01 00:31:21;;;;;;;39.67;19.70;;;;;;;8.87;100.00;93968.16;5075703;28;20530;-65
2022/11/01 00:33:48;;;;;;;30.63;16.85;;;;;;;8.90;100.00;93970.84;5068567;28;20048;-66
2022/11/01 00:36:15;;;;;;;33.87;16.30;;;;;;;8.94;100.00;93963.41;5068305;28;20044;-69
2022/11/01 00:38:42;;;;;;;43.95;18.00;;;;;;;8.85;100.00;93963.06;5068237;28;20067;-66
2022/11/01 00:41:08;;;;;;;32.50;15.60;;;;;;;8.79;100.00;93961.94;5068221;28;20044;-68
2022/11/01 00:43:35;;;;;;;28.13;14.95;;;;;;;8.84;100.00;93967.00;5068008;28;20070;-66
2022/11/01 00:46:03;;;;;;;32.40;15.05;;;;;;;8.85;100.00;93963.06;5067598;28;20071;-70
2022/11/01 00:48:30;;;;;;;26.37;14.17;;;;;;;8.64;100.00;93966.75;5068416;28;20046;-66
2022/11/01 00:50:56;;;;;;;30.75;15.80;;;;;;;8.57;100.00;93964.06;5067694;28;20044;-67
2022/11/01 00:53:23;;;;;;;31.75;16.75;;;;;;;8.59;100.00;93969.91;5068520;28;20049;-68
2022/11/01 00:55:50;;;;;;;30.40;15.55;;;;;;;8.66;100.00;93971.84;5073339;28;20088;-70
2022/11/01 00:58:16;;;;;;;30.15;15.70;;;;;;;8.76;100.00;93977.22;5088280;28;20048;-68
2022/11/01 01:00:43;;;;;;;31.77;15.87;;;;;;;8.77;100.00;93975.25;5086907;28;20044;-68
2022/11/01 01:03:10;;;;;;;27.83;15.38;;;;;;;8.83;100.00;93970.13;5086906;28;20048;-72
2022/11/01 01:05:36;;;;;;;27.67;14.40;;;;;;;8.75;100.00;93970.19;5088095;28;20044;-67
2022/11/01 01:08:03;;;;;;;32.92;16.02;;;;;;;8.64;100.00;93977.69;5088176;28;20052;-69
2022/11/01 01:10:30;;;;;;;29.73;15.88;;;;;;;8.60;100.00;93982.41;5088551;28;20086;-66
2022/11/01 01:12:57;;;;;;;28.63;15.40;;;;;;;8.62;100.00;93974.59;5087857;28;20372;-77
2022/11/01 01:15:24;;;;;;;32.35;16.15;;;;;;;8.64;100.00;93974.97;5088386;28;20073;-66
2022/11/01 01:17:51;;;;;;;31.92;16.05;;;;;;;8.52;100.00;93972.69;5087868;28;20052;-63
2022/11/01 01:20:19;;;;;;;30.42;16.65;;;;;;;8.44;100.00;93979.41;5088095;28;20043;-64
2022/11/01 01:22:45;;;;;;;39.25;18.15;;;;;;;8.45;100.00;93975.47;5087832;28;20125;-65
2022/11/01 01:25:12;;;;;;;34.17;16.77;;;;;;;8.54;100.00;93973.84;5088017;28;20417;-66
2022/11/01 01:27:39;;;;;;;31.35;16.33;;;;;;;8.60;100.00;93972.25;5086459;28;20060;-65
2022/11/01 01:30:09;;;;;;;29.77;16.08;;;;;;;8.64;100.00;93974.19;5088034;28;20036;-64
2022/11/01 01:32:35;;;;;;;29.10;15.35;;;;;;;8.64;100.00;93974.97;5087791;28;20062;-64
2022/11/01 01:35:03;;;;;;;37.97;16.23;;;;;;;8.46;100.00;93974.31;5088025;28;20043;-65
2022/11/01 01:37:30;;;;;;;32.60;15.93;;;;;;;8.49;100.00;93971.56;5088242;28;20101;-65
2022/11/01 01:39:56;;;;;;;44.95;15.80;;;;;;;8.43;100.00;93966.88;5086428;28;20047;-65
2022/11/01 01:42:26;;;;;;;44.50;17.27;;;;;;;8.36;100.00;93973.16;5087919;28;20044;-68
2022/11/01 01:44:55;;;;;;;37.55;19.30;;;;;;;8.39;100.00;93964.94;5087295;28;20412;-65
2022/11/01 01:47:28;;;;;;;31.75;17.73;;;;;;;8.39;100.00;93969.59;5087487;28;20149;-65
2022/11/01 01:50:07;;;;;;;27.73;15.67;;;;;;;8.51;100.00;93963.72;5087689;28;20074;-65
2022/11/01 01:52:41;;;;;;;28.98;16.02;;;;;;;8.55;100.00;93963.69;5087710;28;20060;-65
2022/11/01 01:55:09;;;;;;;28.27;15.98;;;;;;;8.66;100.00;93966.34;5087843;28;20054;-64
2022/11/01 01:57:38;;;;;;;30.33;16.05;;;;;;;8.65;100.00;93962.81;5047173;28;20055;-64
2022/11/01 02:00:05;;;;;;;27.83;15.18;;;;;;;8.79;100.00;93967.41;5050578;28;20044;-64
2022/11/01 02:02:32;;;;;;;28.13;15.10;;;;;;;8.72;100.00;93962.78;5051666;28;20049;-65
2022/11/01 02:05:30;;;;;;;27.30;15.48;;;;;;;8.62;100.00;93957.41;5050918;28;20135;-64
2022/11/01 02:07:57;;;;;;;25.55;14.90;;;;;;;8.55;100.00;93961.75;5045330;28;20053;-65
2022/11/01 02:10:26;;;;;;;27.60;15.15;;;;;;;8.62;100.00;93957.41;5050977;28;20394;-64
2022/11/01 02:12:52;;;;;;;29.85;15.32;;;;;;;8.70;100.00;93950.69;5050567;28;20081;-65
2022/11/01 02:15:27;;;;;;;28.30;15.63;;;;;;;8.71;100.00;93954.97;5050986;28;20041;-65
2022/11/01 02:18:10;;;;;;;25.88;14.85;;;;;;;8.69;100.00;93947.19;5050869;28;20381;-66
2022/11/01 02:20:38;;;;;;;26.00;14.77;;;;;;;8.55;100.00;93945.34;5050814;28;20045;-66
2022/11/01 02:23:28;;;;;;;27.90;14.85;;;;;;;8.56;100.00;93952.34;5050974;28;20045;-65
2022/11/01 02:26:13;;;;;;;27.77;14.43;;;;;;;8.54;100.00;93951.19;5049473;28;20041;-70
2022/11/01 02:28:39;;;;;;;26.87;14.83;;;;;;;8.44;100.00;93960.25;5050598;28;20049;-66
2022/11/01 02:31:22;;;;;;;25.00;14.30;;;;;;;8.31;100.00;93952.50;5049060;28;20045;-70
2022/11/01 02:33:56;;;;;;;28.08;15.02;;;;;;;8.37;100.00;93955.56;5050680;28;20041;-64
2022/11/01 02:36:32;;;;;;;30.13;15.60;;;;;;;8.50;100.00;93964.13;5050615;28;20585;-65
2022/11/01 02:39:04;;;;;;;25.80;14.82;;;;;;;8.53;100.00;93963.31;5049746;28;20060;-67
2022/11/01 02:41:46;;;;;;;24.50;13.23;;;;;;;8.57;100.00;93962.13;5051004;28;20048;-64
2022/11/01 02:44:23;;;;;;;25.60;13.90;;;;;;;8.57;100.00;93961.31;5049824;28;20424;-67
2022/11/01 02:47:01;;;;;;;24.88;13.30;;;;;;;8.62;100.00;93966.38;5048829;28;20056;-67
2022/11/01 02:49:36;;;;;;;26.10;14.18;;;;;;;8.67;100.00;93965.97;5050668;28;20045;-69
2022/11/01 02:52:06;;;;;;;26.52;13.77;;;;;;;8.73;100.00;93972.56;5049731;28;20249;-74
2022/11/01 02:54:44;;;;;;;22.93;13.60;;;;;;;8.46;100.00;93972.34;5050718;28;20051;-67
2022/11/01 02:57:35;;;;;;;25.85;13.98;;;;;;;8.30;100.00;93970.06;5083112;28;22324;-66
2022/11/01 03:00:23;;;;;;;26.38;13.75;;;;;;;8.51;100.00;93984.81;5078240;28;20460;-65
2022/11/01 03:03:26;;;;;;;23.02;13.30;;;;;;;8.58;100.00;93990.25;5090295;28;20512;-65
2022/11/01 03:05:58;;;;;;;23.55;13.00;;;;;;;8.68;100.00;93997.59;5089905;28;20044;-65
2022/11/01 03:08:37;;;;;;;26.33;14.30;;;;;;;8.33;100.00;94004.03;5090188;28;20439;-66
2022/11/01 03:11:27;;;;;;;24.77;13.32;;;;;;;8.57;100.00;94016.03;5089204;28;21755;-65
2022/11/01 03:14:32;;;;;;;24.45;13.27;;;;;;;8.68;100.00;94022.22;5089615;28;20524;-65
2022/11/01 03:16:59;;;;;;;25.25;13.35;;;;;;;8.69;100.00;94014.78;5055733;28;20045;-68
2022/11/01 03:19:51;;;;;;;24.98;14.32;;;;;;;8.39;100.00;94014.16;5085490;28;20048;-65
2022/11/01 03:22:40;;;;;;;24.30;13.73;;;;;;;8.54;100.00;94033.25;5088979;28;20725;-65
2022/11/01 03:25:37;;;;;;;24.88;13.50;;;;;;;8.53;100.00;94034.41;5088803;28;20591;-65
2022/11/01 03:28:03;;;;;;;23.75;13.40;;;;;;;8.58;100.00;94034.00;5089499;28;20132;-68
2022/11/01 03:30:32;;;;;;;24.90;13.10;;;;;;;8.64;100.00;94050.78;5089794;28;20048;-66
2022/11/01 03:32:59;;;;;;;25.27;14.07;;;;;;;8.74;100.00;94028.06;5089105;28;21496;-65
2022/11/01 03:35:33;;;;;;;25.53;13.70;;;;;;;8.64;100.00;94026.94;5089590;28;20036;-68
2022/11/01 03:38:05;;;;;;;22.73;13.45;;;;;;;8.50;100.00;94032.50;5088992;28;20727;-66
2022/11/01 03:40:35;;;;;;;25.63;14.15;;;;;;;8.45;100.00;94030.97;5089747;28;20062;-68
2022/11/01 03:43:05;;;;;;;27.52;14.60;;;;;;;8.36;100.00;94025.88;5088648;28;20693;-69
2022/11/01 03:45:36;;;;;;;26.73;14.85;;;;;;;8.46;100.00;94029.00;5089703;28;20048;-65
2022/11/01 03:48:04;;;;;;;24.90;13.30;;;;;;;8.56;100.00;94033.63;5068297;28;20249;-65
2022/11/01 03:50:32;;;;;;;26.38;13.35;;;;;;;8.69;100.00;94032.00;5069443;28;20044;-66
2022/11/01 03:52:59;;;;;;;24.80;14.00;;;;;;;8.70;100.00;94036.28;5068867;28;20387;-65
2022/11/01 03:55:26;;;;;;;25.52;13.90;;;;;;;8.59;100.00;94039.09;5066730;28;20048;-64
2022/11/01 03:57:58;;;;;;;26.80;14.80;;;;;;;8.55;100.00;94034.78;5066591;28;20055;-66
2022/11/01 04:00:33;;;;;;;24.43;13.13;;;;;;;8.70;100.00;94038.25;5068850;28;20045;-65
2022/11/01 04:03:00;;;;;;;26.98;13.88;;;;;;;8.73;100.00;94037.44;5068215;28;20492;-65
2022/11/01 04:05:29;;;;;;;25.45;14.00;;;;;;;8.72;100.00;94058.53;5068854;28;20079;-65
2022/11/01 04:07:56;;;;;;;27.80;13.73;;;;;;;8.75;100.00;94056.97;5068581;28;20044;-65
2022/11/01 04:10:24;;;;;;;23.20;13.05;;;;;;;8.57;100.00;94046.91;5068672;28;20046;-64
2022/11/01 04:12:51;;;;;;;33.07;17.70;;;;;;;8.64;100.00;94048.81;5068526;28;20105;-68
2022/11/01 04:21:08;;;;;;;24.50;13.25;;;;;;;8.69;100.00;94064.84;5067347;28;20253;-68
2022/11/01 04:23:35;;;;;;;27.45;14.70;;;;;;;8.34;100.00;94061.06;5068439;28;20593;-65
2022/11/01 04:26:03;;;;;;;27.20;13.97;;;;;;;8.56;100.00;94072.69;5068707;28;20051;-66
2022/11/01 04:28:29;;;;;;;24.40;13.20;;;;;;;8.72;100.00;94077.69;5068627;28;20451;-65
2022/11/01 04:30:56;;;;;;;23.90;13.30;;;;;;;8.67;100.00;94080.88;5068362;28;20041;-65
2022/11/01 04:33:22;;;;;;;25.83;13.35;;;;;;;8.57;100.00;94087.16;5068433;28;20041;-67
2022/11/01 04:35:49;;;;;;;26.27;13.27;;;;;;;8.67;100.00;94091.81;5067903;28;20048;-65
2022/11/01 04:38:16;;;;;;;24.00;13.10;;;;;;;8.77;100.00;94093.72;5068360;28;20044;-65
2022/11/01 04:40:43;;;;;;;23.30;12.90;;;;;;;8.85;100.00;94099.13;5068058;28;20404;-65
2022/11/01 04:43:11;;;;;;;25.17;14.10;;;;;;;8.71;100.00;94097.25;5068434;28;20594;-74
2022/11/01 04:45:39;;;;;;;23.45;12.90;;;;;;;8.83;100.00;94104.22;5067862;28;20075;-68
2022/11/01 04:48:17;;;;;;;26.15;13.95;;;;;;;8.63;100.00;94093.75;5068109;28;20519;-68
2022/11/01 04:50:44;;;;;;;23.50;13.20;;;;;;;8.70;100.00;94095.69;5068288;28;20045;-65
2022/11/01 04:53:11;;;;;;;20.98;12.10;;;;;;;8.82;100.00;94092.50;5068256;28;20052;-66
2022/11/01 04:55:38;;;;;;;24.67;13.25;;;;;;;8.87;100.00;94107.72;5071960;28;20100;-66
2022/11/01 04:58:05;;;;;;;21.50;12.20;;;;;;;8.78;100.00;94102.69;5088859;28;20042;-66
2022/11/01 05:00:33;;;;;;;59.85;25.65;;;;;;;8.57;100.00;94103.56;5088597;28;20043;-64
2022/11/01 05:03:06;;;;;;;58.60;26.27;;;;;;;8.55;100.00;94109.44;5087315;28;20405;-67
2022/11/01 05:05:33;;;;;;;45.47;21.02;;;;;;;8.51;100.00;94095.00;5088361;28;20055;-68
2022/11/01 05:08:02;;;;;;;39.25;18.90;;;;;;;8.67;100.00;94099.22;5087424;28;20807;-68
2022/11/01 05:10:30;;;;;;;28.95;15.63;;;;;;;8.79;100.00;94098.75;5088166;28;20504;-65
2022/11/01 05:12:56;;;;;;;29.33;14.30;;;;;;;8.85;100.00;94099.91;5088191;28;20046;-65
2022/11/01 05:15:23;;;;;;;29.87;14.47;;;;;;;9.02;100.00;94100.97;5088004;28;20044;-65
2022/11/01 05:17:50;;;;;;;23.52;12.80;;;;;;;9.09;100.00;94108.38;5086706;28;20044;-67
2022/11/01 05:20:17;;;;;;;23.30;12.18;;;;;;;9.07;100.00;94111.50;5088150;28;20066;-65
2022/11/01 05:22:44;;;;;;;20.75;10.82;;;;;;;9.17;100.00;94104.41;5087746;28;20062;-66
2022/11/01 05:25:11;;;;;;;19.95;10.50;;;;;;;9.26;100.00;94106.69;5088503;28;20039;-65
2022/11/01 05:27:38;;;;;;;20.57;10.43;;;;;;;9.33;100.00;94106.63;5086283;28;20400;-65
2022/11/01 05:30:05;;;;;;;22.80;10.85;;;;;;;9.35;100.00;94115.22;5088158;28;20046;-64
2022/11/01 05:32:34;;;;;;;19.52;10.57;;;;;;;9.42;100.00;94123.41;5087444;28;20112;-65
2022/11/01 05:35:01;;;;;;;22.13;10.85;;;;;;;9.35;100.00;94116.00;5091179;28;20093;-64
2022/11/01 05:37:28;;;;;;;22.80;11.60;;;;;;;9.34;100.00;94114.47;5091852;28;20051;-66
2022/11/01 05:39:54;;;;;;;19.43;10.13;;;;;;;9.41;100.00;94121.84;5090384;28;20435;-66
2022/11/01 05:42:21;;;;;;;21.85;10.75;;;;;;;9.48;100.00;94124.53;5091937;28;20058;-66
2022/11/01 05:44:48;;;;;;;20.77;11.13;;;;;;;9.59;100.00;94119.72;5091359;28;20048;-67
2022/11/01 05:47:14;;;;;;;18.65;9.80;;;;;;;9.56;100.00;94128.78;5091637;28;20048;-65
2022/11/01 05:49:43;;;;;;;17.65;9.27;;;;;;;9.62;100.00;94128.31;5089953;28;20036;-65
2022/11/01 05:52:10;;;;;;;20.87;9.13;;;;;;;9.69;100.00;94133.75;5091844;28;20268;-66
2022/11/01 05:54:37;;;;;;;17.13;8.60;;;;;;;9.76;100.00;94144.66;5091076;28;20538;-65
2022/11/01 05:57:04;;;;;;;18.25;8.52;;;;;;;9.79;100.00;94149.31;5075699;28;20049;-66
2022/11/01 05:59:31;;;;;;;19.00;9.55;;;;;;;9.70;100.00;94149.78;5071346;28;20040;-64
2022/11/01 06:01:58;;;;;;;21.15;9.25;;;;;;;9.84;100.00;94139.88;5063378;28;20101;-65
2022/11/01 06:04:24;;;;;;;19.93;9.40;;;;;;;9.91;100.00;94148.06;5067371;28;20049;-65
2022/11/01 06:06:51;;;;;;;18.67;11.27;;;;;;;9.83;100.00;94158.28;5064006;28;20053;-65
2022/11/01 06:09:18;;;;;;;19.83;11.25;;;;;;;9.89;100.00;94153.94;5057740;28;20047;-66
2022/11/01 06:11:44;;;;;;;22.58;12.25;;;;;;;9.82;100.00;94147.72;5071466;28;20044;-68
2022/11/01 06:14:11;;;;;;;22.73;12.10;;;;;;;9.85;100.00;94144.97;5071248;28;20105;-65
2022/11/01 06:16:38;;;;;;;20.63;11.23;;;;;;;9.89;100.00;94147.69;5069032;28;20055;-66
2022/11/01 06:19:04;;;;;;;37.63;19.67;;;;;;;9.84;100.00;94145.34;5071098;28;20109;-66
2022/11/01 06:21:31;;;;;;;24.58;13.48;;;;;;;9.82;100.00;94142.25;5070698;28;20549;-69
2022/11/01 06:23:58;;;;;;;18.10;9.80;;;;;;;9.91;100.00;94132.38;5070795;28;20041;-69
2022/11/01 06:26:24;;;;;;;15.00;9.40;;;;;;;9.96;100.00;94126.47;5070802;28;20061;-66
2022/11/01 06:28:51;;;;;;;15.00;7.33;;;;;;;9.97;100.00;94125.25;5070168;28;20055;-66
2022/11/01 06:31:18;;;;;;;13.23;7.57;;;;;;;9.92;100.00;94120.25;5069292;28;20041;-68
2022/11/01 06:33:48;;;;;;;19.15;10.35;;;;;;;10.06;100.00;94133.03;5070571;28;20417;-67
2022/11/01 06:36:14;;;;;;;16.33;8.88;;;;;;;10.10;100.00;94149.44;5070873;28;20229;-68
2022/11/01 06:38:41;;;;;;;15.88;7.20;;;;;;;10.06;100.00;94168.69;5070205;28;20040;-67
2022/11/01 06:41:08;;;;;;;19.10;9.30;;;;;;;10.21;100.00;94180.28;5070837;28;20045;-71
2022/11/01 06:43:34;;;;;;;16.38;8.65;;;;;;;10.16;100.00;94195.22;5069662;28;20051;-66
2022/11/01 06:46:01;;;;;;;19.65;10.55;;;;;;;9.69;100.00;94199.53;5070077;28;20051;-67
2022/11/01 06:48:28;;;;;;;17.95;9.85;;;;;;;9.62;100.00;94200.38;5069002;28;20063;-68
2022/11/01 06:50:55;;;;;;;16.70;9.63;;;;;;;9.73;100.00;94197.53;5070104;28;20036;-68
2022/11/01 06:53:24;;;;;;;15.37;9.10;;;;;;;10.02;100.00;94195.34;5069230;28;20101;-67
2022/11/01 06:55:51;;;;;;;14.60;8.55;;;;;;;10.17;100.00;94193.25;5075592;28;20409;-66
2022/11/01 06:58:18;;;;;;;5.25;2.70;;;;;;;10.83;100.00;94192.19;5090688;28;20044;-73
2022/11/01 07:00:45;;;;;;;5.80;2.40;;;;;;;11.08;97.78;94194.63;5089860;28;20056;-66
2022/11/01 07:03:13;;;;;;;5.70;2.70;;;;;;;11.37;95.97;94180.53;5090411;28;20040;-66
2022/11/01 07:05:40;;;;;;;4.13;2.00;;;;;;;11.64;93.42;94179.75;5089572;28;20060;-67
2022/11/01 07:08:11;;;;;;;5.70;2.30;;;;;;;11.77;91.58;94186.19;5090390;28;20066;-68
2022/11/01 07:10:40;;;;;;;4.20;1.85;;;;;;;11.89;90.71;94182.13;5089772;28;20044;-66
2022/11/01 07:13:09;;;;;;;3.03;1.33;;;;;;;11.89;89.70;94174.66;5090455;28;20436;-67
2022/11/01 07:15:36;;;;;;;2.50;1.20;;;;;;;11.95;89.78;94180.44;5089704;28;20048;-66
2022/11/01 07:18:04;;;;;;;1.73;0.60;;;;;;;12.18;84.23;94168.69;5088760;28;20052;-65
2022/11/01 07:20:40;;;;;;;2.30;1.00;;;;;;;12.37;84.18;94173.47;5090092;28;20350;-67
2022/11/01 07:23:13;;;;;;;3.28;1.30;;;;;;;12.42;85.07;94180.44;5089490;28;20473;-68
2022/11/01 07:25:40;;;;;;;6.40;3.63;;;;;;;12.39;85.01;94175.78;5089546;28;20056;-69
2022/11/01 07:28:07;;;;;;;4.10;1.45;;;;;;;12.39;83.97;94181.28;5090140;28;20044;-66
2022/11/01 07:30:34;;;;;;;2.07;0.90;;;;;;;12.43;82.28;94186.72;5087966;28;20052;-66
2022/11/01 07:33:02;;;;;;;2.40;0.90;;;;;;;12.53;82.26;94189.28;5089977;28;20036;-67
2022/11/01 07:35:30;;;;;;;3.40;0.90;;;;;;;12.65;78.74;94190.63;5089660;28;20056;-67
2022/11/01 07:38:00;;;;;;;2.08;0.73;;;;;;;12.80;78.50;94188.41;5089514;28;20040;-69
2022/11/01 07:40:34;;;;;;;3.00;0.85;;;;;;;12.87;78.92;94191.00;5089710;28;20044;-66
2022/11/01 07:43:01;;;;;;;2.30;0.80;;;;;;;12.85;79.51;94198.91;5068356;28;20389;-69
2022/11/01 07:45:30;;;;;;;2.38;0.90;;;;;;;12.77;79.64;94203.00;5085455;28;20519;-66
2022/11/01 07:48:01;;;;;;;2.97;1.20;;;;;;;12.88;79.26;94205.56;5088947;28;20100;-66
2022/11/01 07:50:29;;;;;;;3.75;1.25;;;;;;;12.95;78.26;94216.44;5088262;28;20058;-66
2022/11/01 07:53:03;;;;;;;3.08;1.10;;;;;;;12.94;78.10;94220.41;5089333;28;20044;-68
2022/11/01 07:55:30;;;;;;;5.30;1.60;;;;;;;13.02;78.46;94218.25;5084702;28;20444;-66
2022/11/01 07:57:57;;;;;;;5.25;2.13;;;;;;;12.97;80.01;94227.81;5050550;28;20044;-66
2022/11/01 08:00:24;;;;;;;3.40;1.60;;;;;;;12.89;81.87;94251.94;5068843;28;20040;-67
2022/11/01 08:02:50;;;;;;;4.22;2.05;;;;;;;12.87;82.75;94246.09;5068475;28;20053;-66
2022/11/01 08:05:17;;;;;;;9.57;4.00;;;;;;;12.51;85.33;94249.47;5069134;28;20055;-70
2022/11/01 08:07:44;;;;;;;8.30;4.07;;;;;;;12.31;86.88;94238.41;5068474;28;20044;-67
2022/11/01 08:10:11;;;;;;;10.55;4.60;;;;;;;12.27;86.87;94239.69;5069188;28;20050;-67
2022/11/01 08:12:37;;;;;;;10.48;4.50;;;;;;;12.17;87.60;94238.66;5068566;28;20416;-66
2022/11/01 08:15:04;;;;;;;8.48;4.13;;;;;;;12.14;88.46;94242.25;5067363;28;20049;-67
2022/11/01 08:17:34;;;;;;;14.43;5.60;;;;;;;12.14;88.83;94239.50;5068713;28;20094;-69
2022/11/01 08:20:02;;;;;;;13.73;5.60;;;;;;;12.24;89.04;94254.28;5067913;28;20868;-69
2022/11/01 08:22:28;;;;;;;7.95;4.80;;;;;;;12.42;88.45;94249.25;5068463;28;20044;-68
2022/11/01 08:24:55;;;;;;;9.40;4.30;;;;;;;12.53;87.87;94241.56;5068428;28;20093;-68
2022/11/01 08:27:22;;;;;;;16.52;5.75;;;;;;;12.62;87.03;94240.28;5068653;28;20166;-68
2022/11/01 08:29:48;;;;;;;15.68;5.75;;;;;;;12.57;86.10;94242.28;5068559;28;20048;-67
2022/11/01 08:32:20;;;;;;;9.53;4.50;;;;;;;12.82;86.36;94248.53;5068374;28;20036;-68
2022/11/01 08:34:47;;;;;;;10.27;4.68;;;;;;;12.98;85.53;94252.19;5067921;28;20405;-66
2022/11/01 08:37:14;;;;;;;16.75;6.00;;;;;;;12.94;85.14;94245.97;5068655;28;20046;-67
2022/11/01 08:39:40;;;;;;;18.27;6.38;;;;;;;12.92;85.41;94255.84;5067632;28;20056;-69
2022/11/01 08:42:08;;;;;;;27.40;8.40;;;;;;;12.97;84.61;94242.34;5067370;28;20101;-67
2022/11/01 08:44:34;;;;;;;7.73;4.07;;;;;;;12.89;83.67;94240.16;5067988;28;20052;-67
2022/11/01 08:47:01;;;;;;;10.30;5.40;;;;;;;12.87;84.90;94235.06;5066743;28;20048;-66
2022/11/01 08:49:28;;;;;;;7.65;4.50;;;;;;;12.93;84.52;94240.88;5066916;28;20041;-66
2022/11/01 08:51:54;;;;;;;7.35;4.05;;;;;;;12.96;84.33;94240.03;5067921;28;20546;-66
2022/11/01 08:54:21;;;;;;;6.53;3.30;;;;;;;13.15;82.33;94239.25;5068310;28;20304;-69
2022/11/01 08:56:48;;;;;;;8.03;3.03;;;;;;;13.26;81.33;94241.00;5081196;28;20048;-68
2022/11/01 08:59:14;;;;;;;18.92;5.90;;;;;;;13.41;80.89;94247.81;5088622;28;20036;-67
2022/11/01 09:01:41;;;;;;;14.45;4.63;;;;;;;13.53;79.63;94249.91;5087810;28;20070;-67
2022/11/01 09:04:08;;;;;;;11.77;4.20;;;;;;;13.88;79.31;94250.34;5088428;28;20553;-66
2022/11/01 09:06:34;;;;;;;6.43;3.35;;;;;;;13.68;79.19;94266.16;5087704;28;20044;-67
2022/11/01 09:09:03;;;;;;;14.87;5.00;;;;;;;13.84;78.84;94274.47;5088121;28;20044;-65
2022/11/01 09:11:29;;;;;;;14.13;4.70;;;;;;;13.71;79.19;94276.34;5088095;28;20097;-65
2022/11/01 09:14:00;;;;;;;11.45;4.63;;;;;;;13.38;80.75;94273.47;5086625;28;20048;-70
2022/11/01 09:16:26;;;;;;;8.10;3.85;;;;;;;13.19;82.16;94270.25;5088009;28;20386;-67
2022/11/01 09:18:53;;;;;;;7.43;3.78;;;;;;;13.41;81.76;94269.88;5087493;28;20047;-65
2022/11/01 09:21:20;;;;;;;13.90;6.20;;;;;;;13.69;80.00;94274.00;5088286;28;20036;-65
2022/11/01 09:23:46;;;;;;;20.60;9.13;;;;;;;13.91;79.00;94277.09;5087386;28;20416;-65
2022/11/01 09:26:13;;;;;;;15.82;6.95;;;;;;;14.02;78.40;94268.56;5088435;28;20044;-65
2022/11/01 09:28:40;;;;;;;9.85;4.28;;;;;;;14.41;77.02;94266.06;5087592;28;20184;-65
2022/11/01 09:31:09;;;;;;;10.05;4.22;;;;;;;15.30;73.26;94272.06;5076592;28;20049;-69
2022/11/01 09:33:54;;;;;;;13.53;5.03;;;;;;;16.09;70.77;94272.56;5067863;28;20040;-65
2022/11/01 09:36:23;;;;;;;8.43;3.88;;;;;;;16.66;66.32;94271.97;5068188;28;20060;-67
2022/11/01 09:38:50;;;;;;;8.38;4.20;;;;;;;16.16;68.66;94282.66;5067255;28;20375;-67
2022/11/01 09:41:34;;;;;;;12.43;4.40;;;;;;;16.40;67.52;94282.31;5067824;28;20044;-66
2022/11/01 09:44:05;;;;;;;9.38;3.88;;;;;;;16.03;67.70;94288.19;5066955;28;20872;-66
2022/11/01 09:46:43;;;;;;;5.60;3.23;;;;;;;17.07;66.19;94284.88;5067530;28;20044;-65
2022/11/01 09:49:17;;;;;;;5.50;3.20;;;;;;;17.16;64.58;94284.97;5066756;28;20873;-67
2022/11/01 09:51:43;;;;;;;6.05;3.20;;;;;;;17.91;61.73;94281.50;5067204;28;20408;-68
2022/11/01 09:54:11;;;;;;;4.78;2.80;;;;;;;18.71;59.82;94288.31;5067826;28;20041;-71
2022/11/01 09:56:52;;;;;;;7.43;3.22;;;;;;;19.22;57.22;94283.47;5079295;28;20052;-69
2022/11/01 09:59:34;;;;;;;5.53;2.13;;;;;;;19.45;55.86;94288.41;5087909;28;20039;-66
2022/11/01 10:02:25;;;;;;;4.40;2.10;;;;;;;19.38;55.19;94283.16;5086920;28;20654;-67
2022/11/01 10:05:29;;;;;;;4.03;1.92;;;;;;;18.48;56.78;94278.50;5087276;28;20084;-67
2022/11/01 10:08:04;;;;;;;3.35;1.45;;;;;;;18.80;55.66;94278.47;5087511;28;20398;-66
2022/11/01 10:10:42;;;;;;;5.57;1.80;;;;;;;18.76;55.92;94273.78;5087688;28;20504;-66
2022/11/01 10:13:34;;;;;;;3.47;1.70;;;;;;;20.54;51.52;94276.69;5087130;28;20386;-68
2022/11/01 10:16:11;;;;;;;3.38;1.40;;;;;;;20.86;49.26;94275.16;5086898;28;20258;-66
2022/11/01 10:18:51;;;;;;;3.42;1.52;;;;;;;21.73;48.42;94272.38;5087233;28;20040;-68
2022/11/01 10:21:20;;;;;;;2.72;1.30;;;;;;;21.67;48.14;94270.69;5091101;28;20028;-67
2022/11/01 10:23:52;;;;;;;2.22;0.90;;;;;;;21.44;48.53;94267.50;5090837;28;20055;-68
2022/11/01 10:26:24;;;;;;;3.37;1.43;;;;;;;20.83;49.04;94284.50;5091656;28;20040;-66
2022/11/01 10:29:00;;;;;;;2.80;0.90;;;;;;;20.47;49.76;94286.19;5090890;28;20497;-66
2022/11/01 10:31:27;;;;;;;2.67;1.00;;;;;;;19.51;52.66;94269.06;5091505;28;20437;-67
2022/11/01 10:33:57;;;;;;;2.00;0.70;;;;;;;19.27;53.68;94277.28;5090090;28;20055;-68
2022/11/01 10:36:32;;;;;;;2.97;1.00;;;;;;;18.72;55.29;94275.94;5090831;28;20092;-66
2022/11/01 10:39:41;;;;;;;3.23;0.80;;;;;;;18.40;56.83;94284.81;5090932;28;20036;-65
2022/11/01 10:42:28;;;;;;;3.08;0.80;;;;;;;18.58;56.42;94284.88;5089861;28;20418;-69
2022/11/01 10:45:02;;;;;;;2.95;0.90;;;;;;;18.33;57.76;94283.06;5090082;28;20035;-69
2022/11/01 10:47:29;;;;;;;2.92;1.20;;;;;;;18.08;58.27;94286.81;5089272;28;20044;-66
2022/11/01 10:50:04;;;;;;;2.58;0.85;;;;;;;17.43;59.74;94283.63;5090014;28;20046;-66
2022/11/01 10:52:59;;;;;;;2.50;1.00;;;;;;;17.62;59.47;94278.19;5090653;28;20055;-69
2022/11/01 10:55:44;;;;;;;3.42;1.00;;;;;;;18.35;57.52;94281.41;5087106;28;21280;-66
2022/11/01 10:58:33;;;;;;;2.63;0.88;;;;;;;17.90;58.83;94277.16;5069349;28;21551;-65
2022/11/01 11:01:02;;;;;;;2.38;0.77;;;;;;;18.29;56.58;94274.09;5031618;28;20413;-70
2022/11/01 11:03:30;;;;;;;2.72;1.13;;;;;;;17.30;58.55;94274.56;5070410;28;20059;-65
2022/11/01 11:06:04;;;;;;;4.23;1.30;;;;;;;17.20;60.02;94286.81;5069716;28;20089;-65
2022/11/01 11:08:32;;;;;;;2.50;0.88;;;;;;;17.46;58.63;94279.94;5070058;28;20055;-67
2022/11/01 11:11:06;;;;;;;2.47;0.90;;;;;;;17.00;59.79;94284.34;5069461;28;20163;-67
2022/11/01 11:13:34;;;;;;;2.70;0.82;;;;;;;17.24;58.94;94273.59;5069738;28;20052;-75
2022/11/01 11:16:04;;;;;;;2.70;0.80;;;;;;;17.35;58.36;94276.78;5068956;28;21573;-70
2022/11/01 11:18:37;;;;;;;3.10;1.00;;;;;;;17.62;57.48;94275.41;5070026;28;20051;-66
2022/11/01 11:21:10;;;;;;;2.88;0.80;;;;;;;17.67;56.85;94274.84;5069158;28;20056;-69
2022/11/01 11:23:45;;;;;;;4.68;1.20;;;;;;;17.79;56.63;94274.00;5069411;28;20425;-66
2022/11/01 11:26:15;;;;;;;3.50;1.00;;;;;;;17.82;56.80;94277.84;5069808;28;20471;-66
2022/11/01 11:28:48;;;;;;;3.15;0.93;;;;;;;18.05;55.94;94274.63;5069125;28;20053;-65
2022/11/01 11:31:25;;;;;;;3.10;1.07;;;;;;;18.19;55.44;94278.06;5069402;28;20047;-65
2022/11/01 11:34:26;;;;;;;2.78;0.90;;;;;;;18.05;55.20;94266.28;5068790;28;20097;-64
2022/11/01 11:36:53;;;;;;;5.28;1.10;;;;;;;18.39;55.00;94277.69;5068936;28;20056;-65
2022/11/01 11:39:30;;;;;;;3.47;0.85;;;;;;;17.84;56.13;94273.41;5069595;28;20040;-65
2022/11/01 11:42:26;;;;;;;3.33;1.00;;;;;;;18.50;54.57;94276.03;5068966;28;20044;-65
2022/11/01 11:44:54;;;;;;;2.80;1.20;;;;;;;18.43;54.73;94276.34;5055757;28;20117;-66
2022/11/01 11:47:24;;;;;;;3.30;1.00;;;;;;;18.05;54.93;94276.59;5068964;28;20113;-66